sensor_id;sensor_type;location;lat;lon;timestamp;temperature;humidity
20526;DHT22;10421;49.142;9.232;2023-07-09T00:01:41;27.50;59.40
20526;DHT22;10421;49.142;9.232;2023-07-09T00:04:09;27.50;59.70
20526;DHT22;10421;49.142;9.232;2023-07-09T00:06:36;27.50;59.90
20526;DHT22;10421;49.142;9.232;2023-07-09T00:09:03;27.50;60.00
20526;DHT22;10421;49.142;9.232;2023-07-09T00:11:31;27.40;60.00
20526;DHT22;10421;49.142;9.232;2023-07-09T00:13:59;27.40;60.10
20526;DHT22;10421;49.142;9.232;2023-07-09T00:16:26;27.40;60.40
20526;DHT22;10421;49.142;9.232;2023-07-09T00:18:53;27.30;60.60
20526;DHT22;10421;49.142;9.232;2023-07-09T00:21:21;27.30;60.60
20526;DHT22;10421;49.142;9.232;2023-07-09T00:23:47;27.30;60.80
20526;DHT22;10421;49.142;9.232;2023-07-09T00:26:16;27.30;60.90
20526;DHT22;10421;49.142;9.232;2023-07-09T00:28:43;27.30;60.90
20526;DHT22;10421;49.142;9.232;2023-07-09T00:31:13;27.30;60.80
20526;DHT22;10421;49.142;9.232;2023-07-09T00:33:41;27.20;60.80
20526;DHT22;10421;49.142;9.232;2023-07-09T00:36:14;27.20;61.10
20526;DHT22;10421;49.142;9.232;2023-07-09T00:38:41;27.10;61.40
20526;DHT22;10421;49.142;9.232;2023-07-09T00:41:15;27.00;61.60
20526;DHT22;10421;49.142;9.232;2023-07-09T00:43:45;27.00;61.80
20526;DHT22;10421;49.142;9.232;2023-07-09T00:49:26;26.90;62.10
20526;DHT22;10421;49.142;9.232;2023-07-09T00:51:56;26.90;62.20
20526;DHT22;10421;49.142;9.232;2023-07-09T00:54:28;26.90;62.40
20526;DHT22;10421;49.142;9.232;2023-07-09T00:57:00;26.90;62.50
20526;DHT22;10421;49.142;9.232;2023-07-09T00:59:30;26.90;62.80
20526;DHT22;10421;49.142;9.232;2023-07-09T01:01:58;26.80;62.70
20526;DHT22;10421;49.142;9.232;2023-07-09T01:04:27;26.80;62.80
20526;DHT22;10421;49.142;9.232;2023-07-09T01:06:55;26.70;62.90
20526;DHT22;10421;49.142;9.232;2023-07-09T01:09:23;26.70;63.00
20526;DHT22;10421;49.142;9.232;2023-07-09T01:11:51;26.70;63.10
20526;DHT22;10421;49.142;9.232;2023-07-09T01:14:23;26.70;63.40
20526;DHT22;10421;49.142;9.232;2023-07-09T01:16:55;26.70;63.50
20526;DHT22;10421;49.142;9.232;2023-07-09T01:19:24;26.60;63.40
20526;DHT22;10421;49.142;9.232;2023-07-09T01:21:54;26.60;63.50
20526;DHT22;10421;49.142;9.232;2023-07-09T01:24:48;26.60;63.50
20526;DHT22;10421;49.142;9.232;2023-07-09T01:27:15;26.60;63.80
20526;DHT22;10421;49.142;9.232;2023-07-09T01:29:43;26.60;63.80
20526;DHT22;10421;49.142;9.232;2023-07-09T01:32:13;26.60;63.90
20526;DHT22;10421;49.142;9.232;2023-07-09T01:34:40;26.60;64.00
20526;DHT22;10421;49.142;9.232;2023-07-09T01:37:08;26.50;64.00
20526;DHT22;10421;49.142;9.232;2023-07-09T01:39:35;26.50;64.20
20526;DHT22;10421;49.142;9.232;2023-07-09T01:42:02;26.40;64.30
20526;DHT22;10421;49.142;9.232;2023-07-09T01:44:34;26.40;64.70
20526;DHT22;10421;49.142;9.232;2023-07-09T01:47:01;26.30;64.90
20526;DHT22;10421;49.142;9.232;2023-07-09T01:49:29;26.30;65.20
20526;DHT22;10421;49.142;9.232;2023-07-09T01:51:58;26.20;65.30
20526;DHT22;10421;49.142;9.232;2023-07-09T01:54:28;26.20;65.50
20526;DHT22;10421;49.142;9.232;2023-07-09T01:56:54;26.20;65.80
20526;DHT22;10421;49.142;9.232;2023-07-09T01:59:26;26.10;65.90
20526;DHT22;10421;49.142;9.232;2023-07-09T02:01:53;26.10;66.20
20526;DHT22;10421;49.142;9.232;2023-07-09T02:04:23;26.10;66.40
20526;DHT22;10421;49.142;9.232;2023-07-09T02:06:53;26.10;66.60
20526;DHT22;10421;49.142;9.232;2023-07-09T02:09:20;26.00;66.70
20526;DHT22;10421;49.142;9.232;2023-07-09T02:11:48;26.00;66.80
20526;DHT22;10421;49.142;9.232;2023-07-09T02:14:15;25.90;67.10
20526;DHT22;10421;49.142;9.232;2023-07-09T02:16:42;25.90;67.60
20526;DHT22;10421;49.142;9.232;2023-07-09T02:19:08;25.90;67.30
20526;DHT22;10421;49.142;9.232;2023-07-09T02:21:35;25.90;67.30
20526;DHT22;10421;49.142;9.232;2023-07-09T02:24:02;25.90;67.50
20526;DHT22;10421;49.142;9.232;2023-07-09T02:26:29;25.80;67.60
20526;DHT22;10421;49.142;9.232;2023-07-09T02:28:57;25.80;67.80
20526;DHT22;10421;49.142;9.232;2023-07-09T02:31:24;25.80;68.00
20526;DHT22;10421;49.142;9.232;2023-07-09T02:33:50;25.70;68.30
20526;DHT22;10421;49.142;9.232;2023-07-09T02:36:17;25.70;68.50
20526;DHT22;10421;49.142;9.232;2023-07-09T02:38:44;25.60;68.70
20526;DHT22;10421;49.142;9.232;2023-07-09T02:41:10;25.60;68.90
20526;DHT22;10421;49.142;9.232;2023-07-09T02:43:37;25.60;69.00
20526;DHT22;10421;49.142;9.232;2023-07-09T02:46:05;25.60;69.20
20526;DHT22;10421;49.142;9.232;2023-07-09T02:48:32;25.60;69.40
20526;DHT22;10421;49.142;9.232;2023-07-09T02:50:58;25.60;70.40
20526;DHT22;10421;49.142;9.232;2023-07-09T02:53:26;25.60;69.80
20526;DHT22;10421;49.142;9.232;2023-07-09T02:55:53;25.50;69.80
20526;DHT22;10421;49.142;9.232;2023-07-09T02:58:20;25.50;69.80
20526;DHT22;10421;49.142;9.232;2023-07-09T03:00:49;25.50;69.90
20526;DHT22;10421;49.142;9.232;2023-07-09T03:03:20;25.50;70.10
20526;DHT22;10421;49.142;9.232;2023-07-09T03:05:47;25.40;70.10
20526;DHT22;10421;49.142;9.232;2023-07-09T03:08:14;25.50;70.30
20526;DHT22;10421;49.142;9.232;2023-07-09T03:10:41;25.40;70.40
20526;DHT22;10421;49.142;9.232;2023-07-09T03:13:07;25.40;70.40
20526;DHT22;10421;49.142;9.232;2023-07-09T03:15:34;25.40;70.50
20526;DHT22;10421;49.142;9.232;2023-07-09T03:18:01;25.40;70.50
20526;DHT22;10421;49.142;9.232;2023-07-09T03:20:29;25.40;70.90
20526;DHT22;10421;49.142;9.232;2023-07-09T03:22:56;25.30;71.00
20526;DHT22;10421;49.142;9.232;2023-07-09T03:25:22;25.20;71.30
20526;DHT22;10421;49.142;9.232;2023-07-09T03:27:49;25.20;71.60
20526;DHT22;10421;49.142;9.232;2023-07-09T03:30:16;25.20;71.90
20526;DHT22;10421;49.142;9.232;2023-07-09T03:32:43;25.20;72.00
20526;DHT22;10421;49.142;9.232;2023-07-09T03:35:10;25.20;72.20
20526;DHT22;10421;49.142;9.232;2023-07-09T03:37:38;25.10;72.30
20526;DHT22;10421;49.142;9.232;2023-07-09T03:40:10;25.10;72.60
20526;DHT22;10421;49.142;9.232;2023-07-09T03:42:37;25.00;72.80
20526;DHT22;10421;49.142;9.232;2023-07-09T03:45:05;25.00;73.00
20526;DHT22;10421;49.142;9.232;2023-07-09T03:47:32;25.00;73.10
20526;DHT22;10421;49.142;9.232;2023-07-09T03:49:58;25.00;73.20
20526;DHT22;10421;49.142;9.232;2023-07-09T03:52:25;25.00;73.40
20526;DHT22;10421;49.142;9.232;2023-07-09T03:54:54;24.90;73.40
20526;DHT22;10421;49.142;9.232;2023-07-09T03:57:22;25.00;73.50
20526;DHT22;10421;49.142;9.232;2023-07-09T03:59:48;25.00;73.70
20526;DHT22;10421;49.142;9.232;2023-07-09T04:02:15;24.90;73.80
20526;DHT22;10421;49.142;9.232;2023-07-09T04:04:42;24.90;74.00
20526;DHT22;10421;49.142;9.232;2023-07-09T04:07:08;24.90;74.10
20526;DHT22;10421;49.142;9.232;2023-07-09T04:09:35;24.80;74.00
20526;DHT22;10421;49.142;9.232;2023-07-09T04:12:04;24.90;74.30
20526;DHT22;10421;49.142;9.232;2023-07-09T04:14:31;24.80;74.20
20526;DHT22;10421;49.142;9.232;2023-07-09T04:16:58;24.80;74.20
20526;DHT22;10421;49.142;9.232;2023-07-09T04:19:25;24.80;74.30
20526;DHT22;10421;49.142;9.232;2023-07-09T04:21:52;24.70;74.40
20526;DHT22;10421;49.142;9.232;2023-07-09T04:24:19;24.70;74.60
20526;DHT22;10421;49.142;9.232;2023-07-09T04:26:47;24.70;74.80
20526;DHT22;10421;49.142;9.232;2023-07-09T04:29:15;24.70;74.90
20526;DHT22;10421;49.142;9.232;2023-07-09T04:31:42;24.70;75.10
20526;DHT22;10421;49.142;9.232;2023-07-09T04:34:08;24.80;75.20
20526;DHT22;10421;49.142;9.232;2023-07-09T04:36:35;24.80;75.10
20526;DHT22;10421;49.142;9.232;2023-07-09T04:39:02;24.80;75.10
20526;DHT22;10421;49.142;9.232;2023-07-09T04:41:29;24.90;75.10
20526;DHT22;10421;49.142;9.232;2023-07-09T04:43:55;25.00;75.20
20526;DHT22;10421;49.142;9.232;2023-07-09T04:46:23;25.00;75.20
20526;DHT22;10421;49.142;9.232;2023-07-09T04:48:50;25.00;75.20
20526;DHT22;10421;49.142;9.232;2023-07-09T04:51:17;25.10;75.20
20526;DHT22;10421;49.142;9.232;2023-07-09T04:53:44;25.10;75.10
20526;DHT22;10421;49.142;9.232;2023-07-09T04:56:10;25.10;75.00
20526;DHT22;10421;49.142;9.232;2023-07-09T04:58:38;25.10;74.90
20526;DHT22;10421;49.142;9.232;2023-07-09T05:01:05;25.20;75.00
20526;DHT22;10421;49.142;9.232;2023-07-09T05:03:33;25.20;75.00
20526;DHT22;10421;49.142;9.232;2023-07-09T05:05:59;25.20;75.00
20526;DHT22;10421;49.142;9.232;2023-07-09T05:08:26;25.30;75.10
20526;DHT22;10421;49.142;9.232;2023-07-09T05:10:54;25.30;75.20
20526;DHT22;10421;49.142;9.232;2023-07-09T05:13:21;25.40;75.40
20526;DHT22;10421;49.142;9.232;2023-07-09T05:15:48;25.40;75.60
20526;DHT22;10421;49.142;9.232;2023-07-09T05:18:17;25.50;75.80
20526;DHT22;10421;49.142;9.232;2023-07-09T05:20:46;25.50;76.20
20526;DHT22;10421;49.142;9.232;2023-07-09T05:23:13;25.60;76.40
20526;DHT22;10421;49.142;9.232;2023-07-09T05:25:40;25.60;76.50
20526;DHT22;10421;49.142;9.232;2023-07-09T05:28:07;25.60;76.60
20526;DHT22;10421;49.142;9.232;2023-07-09T05:30:33;25.60;76.80
20526;DHT22;10421;49.142;9.232;2023-07-09T05:33:00;25.60;77.00
20526;DHT22;10421;49.142;9.232;2023-07-09T05:35:27;25.60;77.20
20526;DHT22;10421;49.142;9.232;2023-07-09T05:37:55;25.70;77.70
20526;DHT22;10421;49.142;9.232;2023-07-09T05:40:22;25.80;78.20
20526;DHT22;10421;49.142;9.232;2023-07-09T05:42:49;25.80;78.30
20526;DHT22;10421;49.142;9.232;2023-07-09T05:45:16;25.90;78.60
20526;DHT22;10421;49.142;9.232;2023-07-09T05:47:43;25.90;78.70
20526;DHT22;10421;49.142;9.232;2023-07-09T05:50:10;25.90;79.10
20526;DHT22;10421;49.142;9.232;2023-07-09T05:52:36;25.90;79.00
20526;DHT22;10421;49.142;9.232;2023-07-09T05:55:06;26.00;79.10
20526;DHT22;10421;49.142;9.232;2023-07-09T05:57:32;26.00;79.10
20526;DHT22;10421;49.142;9.232;2023-07-09T05:59:59;26.00;79.10
20526;DHT22;10421;49.142;9.232;2023-07-09T06:02:26;26.00;79.10
20526;DHT22;10421;49.142;9.232;2023-07-09T06:04:52;26.00;79.00
20526;DHT22;10421;49.142;9.232;2023-07-09T06:07:19;26.10;79.10
20526;DHT22;10421;49.142;9.232;2023-07-09T06:09:47;26.10;79.10
20526;DHT22;10421;49.142;9.232;2023-07-09T06:12:15;26.10;79.00
20526;DHT22;10421;49.142;9.232;2023-07-09T06:14:44;26.10;79.10
20526;DHT22;10421;49.142;9.232;2023-07-09T06:17:11;26.20;79.10
20526;DHT22;10421;49.142;9.232;2023-07-09T06:19:38;26.30;79.20
20526;DHT22;10421;49.142;9.232;2023-07-09T06:22:05;26.40;79.00
20526;DHT22;10421;49.142;9.232;2023-07-09T06:24:32;26.40;78.80
20526;DHT22;10421;49.142;9.232;2023-07-09T06:26:59;26.40;79.50
20526;DHT22;10421;49.142;9.232;2023-07-09T06:29:27;26.40;78.60
20526;DHT22;10421;49.142;9.232;2023-07-09T06:31:54;26.50;78.40
20526;DHT22;10421;49.142;9.232;2023-07-09T06:34:20;26.50;78.50
20526;DHT22;10421;49.142;9.232;2023-07-09T06:36:47;26.50;78.40
20526;DHT22;10421;49.142;9.232;2023-07-09T06:39:14;26.60;78.20
20526;DHT22;10421;49.142;9.232;2023-07-09T06:41:41;26.60;78.10
20526;DHT22;10421;49.142;9.232;2023-07-09T06:44:09;26.70;78.00
20526;DHT22;10421;49.142;9.232;2023-07-09T06:46:37;26.80;77.70
20526;DHT22;10421;49.142;9.232;2023-07-09T06:49:04;27.00;77.60
20526;DHT22;10421;49.142;9.232;2023-07-09T06:51:32;27.10;77.30
20526;DHT22;10421;49.142;9.232;2023-07-09T06:53:59;27.20;76.90
20526;DHT22;10421;49.142;9.232;2023-07-09T06:56:25;27.30;76.70
20526;DHT22;10421;49.142;9.232;2023-07-09T06:58:52;27.30;76.30
20526;DHT22;10421;49.142;9.232;2023-07-09T07:01:19;27.30;76.10
20526;DHT22;10421;49.142;9.232;2023-07-09T07:03:47;27.40;76.00
20526;DHT22;10421;49.142;9.232;2023-07-09T07:06:14;27.40;75.60
20526;DHT22;10421;49.142;9.232;2023-07-09T07:08:41;27.50;75.50
20526;DHT22;10421;49.142;9.232;2023-07-09T07:11:08;27.50;75.30
20526;DHT22;10421;49.142;9.232;2023-07-09T07:13:36;27.60;75.20
20526;DHT22;10421;49.142;9.232;2023-07-09T07:16:05;27.80;75.30
20526;DHT22;10421;49.142;9.232;2023-07-09T07:18:32;27.80;74.70
20526;DHT22;10421;49.142;9.232;2023-07-09T07:21:01;27.90;74.60
20526;DHT22;10421;49.142;9.232;2023-07-09T07:23:28;27.90;74.30
20526;DHT22;10421;49.142;9.232;2023-07-09T07:25:55;28.00;74.10
20526;DHT22;10421;49.142;9.232;2023-07-09T07:28:22;28.10;74.00
20526;DHT22;10421;49.142;9.232;2023-07-09T07:30:58;28.20;74.00
20526;DHT22;10421;49.142;9.232;2023-07-09T07:33:25;28.30;73.50
20526;DHT22;10421;49.142;9.232;2023-07-09T07:35:52;28.40;73.00
20526;DHT22;10421;49.142;9.232;2023-07-09T07:38:20;28.60;73.00
20526;DHT22;10421;49.142;9.232;2023-07-09T07:40:47;28.70;72.60
20526;DHT22;10421;49.142;9.232;2023-07-09T07:43:13;28.80;72.20
20526;DHT22;10421;49.142;9.232;2023-07-09T07:45:40;28.90;72.00
20526;DHT22;10421;49.142;9.232;2023-07-09T07:48:07;29.10;71.90
20526;DHT22;10421;49.142;9.232;2023-07-09T07:50:34;29.30;71.00
20526;DHT22;10421;49.142;9.232;2023-07-09T07:53:01;29.40;70.50
20526;DHT22;10421;49.142;9.232;2023-07-09T07:55:29;29.50;70.20
20526;DHT22;10421;49.142;9.232;2023-07-09T07:57:56;29.60;69.90
20526;DHT22;10421;49.142;9.232;2023-07-09T08:00:23;29.80;69.80
20526;DHT22;10421;49.142;9.232;2023-07-09T08:02:50;29.80;69.00
20526;DHT22;10421;49.142;9.232;2023-07-09T08:05:17;29.90;68.50
20526;DHT22;10421;49.142;9.232;2023-07-09T08:07:43;29.90;67.90
20526;DHT22;10421;49.142;9.232;2023-07-09T08:10:11;30.10;67.40
20526;DHT22;10421;49.142;9.232;2023-07-09T08:12:39;30.20;67.20
20526;DHT22;10421;49.142;9.232;2023-07-09T08:15:07;30.30;66.90
20526;DHT22;10421;49.142;9.232;2023-07-09T08:17:34;30.50;66.60
20526;DHT22;10421;49.142;9.232;2023-07-09T08:20:01;30.70;66.20
20526;DHT22;10421;49.142;9.232;2023-07-09T08:22:27;30.80;66.00
20526;DHT22;10421;49.142;9.232;2023-07-09T08:24:54;30.90;65.40
20526;DHT22;10421;49.142;9.232;2023-07-09T08:27:21;31.10;65.10
20526;DHT22;10421;49.142;9.232;2023-07-09T08:29:49;31.20;64.80
20526;DHT22;10421;49.142;9.232;2023-07-09T08:32:15;31.30;64.70
20526;DHT22;10421;49.142;9.232;2023-07-09T08:34:42;31.40;64.50
20526;DHT22;10421;49.142;9.232;2023-07-09T08:37:09;31.60;64.30
20526;DHT22;10421;49.142;9.232;2023-07-09T08:39:36;31.60;63.20
20526;DHT22;10421;49.142;9.232;2023-07-09T08:42:05;31.60;63.50
20526;DHT22;10421;49.142;9.232;2023-07-09T08:45:03;31.70;63.60
20526;DHT22;10421;49.142;9.232;2023-07-09T08:47:43;31.70;64.00
20526;DHT22;10421;49.142;9.232;2023-07-09T08:50:15;31.90;64.20
20526;DHT22;10421;49.142;9.232;2023-07-09T08:52:44;32.00;64.00
20526;DHT22;10421;49.142;9.232;2023-07-09T08:55:18;32.10;63.80
20526;DHT22;10421;49.142;9.232;2023-07-09T08:57:46;32.20;63.10
20526;DHT22;10421;49.142;9.232;2023-07-09T09:00:21;32.40;62.80
20526;DHT22;10421;49.142;9.232;2023-07-09T09:02:51;32.40;62.30
20526;DHT22;10421;49.142;9.232;2023-07-09T09:05:20;32.50;61.80
20526;DHT22;10421;49.142;9.232;2023-07-09T09:07:51;32.50;61.50
20526;DHT22;10421;49.142;9.232;2023-07-09T09:10:29;32.60;61.10
20526;DHT22;10421;49.142;9.232;2023-07-09T09:13:08;32.60;60.80
20526;DHT22;10421;49.142;9.232;2023-07-09T09:15:39;32.70;60.10
20526;DHT22;10421;49.142;9.232;2023-07-09T09:18:23;32.80;59.60
20526;DHT22;10421;49.142;9.232;2023-07-09T09:20:55;32.90;59.70
20526;DHT22;10421;49.142;9.232;2023-07-09T09:23:26;33.10;59.70
20526;DHT22;10421;49.142;9.232;2023-07-09T09:25:57;33.20;59.50
20526;DHT22;10421;49.142;9.232;2023-07-09T09:28:27;33.40;58.80
20526;DHT22;10421;49.142;9.232;2023-07-09T09:30:55;33.50;58.50
20526;DHT22;10421;49.142;9.232;2023-07-09T09:33:22;33.60;58.10
20526;DHT22;10421;49.142;9.232;2023-07-09T09:35:49;33.70;57.80
20526;DHT22;10421;49.142;9.232;2023-07-09T09:38:17;33.80;57.70
20526;DHT22;10421;49.142;9.232;2023-07-09T09:40:45;33.90;57.40
20526;DHT22;10421;49.142;9.232;2023-07-09T09:43:15;34.10;57.10
20526;DHT22;10421;49.142;9.232;2023-07-09T09:45:44;34.10;55.90
20526;DHT22;10421;49.142;9.232;2023-07-09T09:48:31;34.30;55.40
20526;DHT22;10421;49.142;9.232;2023-07-09T09:51:16;34.40;55.30
20526;DHT22;10421;49.142;9.232;2023-07-09T09:53:51;34.60;54.80
20526;DHT22;10421;49.142;9.232;2023-07-09T09:56:23;34.70;53.90
20526;DHT22;10421;49.142;9.232;2023-07-09T09:59:01;34.70;52.80
20526;DHT22;10421;49.142;9.232;2023-07-09T10:01:33;34.90;52.80
20526;DHT22;10421;49.142;9.232;2023-07-09T10:04:06;34.90;52.10
20526;DHT22;10421;49.142;9.232;2023-07-09T10:06:43;34.90;52.10
20526;DHT22;10421;49.142;9.232;2023-07-09T10:09:45;34.90;51.80
20526;DHT22;10421;49.142;9.232;2023-07-09T10:12:32;35.10;51.50
20526;DHT22;10421;49.142;9.232;2023-07-09T10:15:12;35.10;50.80
20526;DHT22;10421;49.142;9.232;2023-07-09T10:17:45;35.10;46.40
20526;DHT22;10421;49.142;9.232;2023-07-09T10:20:40;34.90;45.40
20526;DHT22;10421;49.142;9.232;2023-07-09T10:23:25;34.80;45.50
20526;DHT22;10421;49.142;9.232;2023-07-09T10:26:09;34.90;45.70
20526;DHT22;10421;49.142;9.232;2023-07-09T10:28:53;35.00;45.20
20526;DHT22;10421;49.142;9.232;2023-07-09T10:31:47;34.80;45.30
20526;DHT22;10421;49.142;9.232;2023-07-09T10:34:27;34.80;45.60
20526;DHT22;10421;49.142;9.232;2023-07-09T10:37:15;35.00;45.00
20526;DHT22;10421;49.142;9.232;2023-07-09T10:39:48;35.10;42.80
20526;DHT22;10421;49.142;9.232;2023-07-09T10:42:20;35.40;42.50
20526;DHT22;10421;49.142;9.232;2023-07-09T10:44:55;35.50;40.20
20526;DHT22;10421;49.142;9.232;2023-07-09T10:47:29;35.60;41.30
20526;DHT22;10421;49.142;9.232;2023-07-09T10:49:58;35.60;42.40
20526;DHT22;10421;49.142;9.232;2023-07-09T10:52:29;35.50;40.00
20526;DHT22;10421;49.142;9.232;2023-07-09T10:55:00;35.50;41.00
20526;DHT22;10421;49.142;9.232;2023-07-09T10:57:31;35.60;40.50
20526;DHT22;10421;49.142;9.232;2023-07-09T11:00:01;35.50;40.80
20526;DHT22;10421;49.142;9.232;2023-07-09T11:02:31;35.40;40.80
20526;DHT22;10421;49.142;9.232;2023-07-09T11:05:00;35.40;40.40
20526;DHT22;10421;49.142;9.232;2023-07-09T11:07:32;35.50;39.90
20526;DHT22;10421;49.142;9.232;2023-07-09T11:10:01;35.60;40.00
20526;DHT22;10421;49.142;9.232;2023-07-09T11:12:32;35.90;40.20
20526;DHT22;10421;49.142;9.232;2023-07-09T11:15:03;36.10;39.70
20526;DHT22;10421;49.142;9.232;2023-07-09T11:17:30;36.20;38.70
20526;DHT22;10421;49.142;9.232;2023-07-09T11:20:00;36.20;38.70
20526;DHT22;10421;49.142;9.232;2023-07-09T11:22:37;36.30;38.50
20526;DHT22;10421;49.142;9.232;2023-07-09T11:25:07;36.40;38.70
20526;DHT22;10421;49.142;9.232;2023-07-09T11:27:45;36.50;38.30
20526;DHT22;10421;49.142;9.232;2023-07-09T11:30:21;36.70;38.20
20526;DHT22;10421;49.142;9.232;2023-07-09T11:32:52;36.70;38.70
20526;DHT22;10421;49.142;9.232;2023-07-09T11:35:22;36.60;37.80
20526;DHT22;10421;49.142;9.232;2023-07-09T11:37:51;36.60;37.90
20526;DHT22;10421;49.142;9.232;2023-07-09T11:40:21;36.60;38.00
20526;DHT22;10421;49.142;9.232;2023-07-09T11:42:51;36.50;38.00
20526;DHT22;10421;49.142;9.232;2023-07-09T11:45:21;36.40;37.90
20526;DHT22;10421;49.142;9.232;2023-07-09T11:47:54;36.40;36.70
20526;DHT22;10421;49.142;9.232;2023-07-09T11:50:26;36.50;37.20
20526;DHT22;10421;49.142;9.232;2023-07-09T11:52:56;36.60;37.00
20526;DHT22;10421;49.142;9.232;2023-07-09T11:55:29;36.70;37.50
20526;DHT22;10421;49.142;9.232;2023-07-09T11:58:00;36.80;37.30
20526;DHT22;10421;49.142;9.232;2023-07-09T12:00:28;37.10;37.50
20526;DHT22;10421;49.142;9.232;2023-07-09T12:02:56;37.50;37.50
20526;DHT22;10421;49.142;9.232;2023-07-09T12:05:27;37.70;35.60
20526;DHT22;10421;49.142;9.232;2023-07-09T12:07:57;37.90;34.80
20526;DHT22;10421;49.142;9.232;2023-07-09T12:10:27;37.90;34.90
20526;DHT22;10421;49.142;9.232;2023-07-09T12:12:55;38.00;34.80
20526;DHT22;10421;49.142;9.232;2023-07-09T12:15:24;38.10;35.00
20526;DHT22;10421;49.142;9.232;2023-07-09T12:18:01;38.10;35.50
20526;DHT22;10421;49.142;9.232;2023-07-09T12:20:31;38.00;36.10
20526;DHT22;10421;49.142;9.232;2023-07-09T12:22:59;38.10;36.40
20526;DHT22;10421;49.142;9.232;2023-07-09T12:25:29;38.20;36.60
20526;DHT22;10421;49.142;9.232;2023-07-09T12:27:58;38.40;36.60
20526;DHT22;10421;49.142;9.232;2023-07-09T12:30:25;38.70;36.30
20526;DHT22;10421;49.142;9.232;2023-07-09T12:32:51;38.60;34.80
20526;DHT22;10421;49.142;9.232;2023-07-09T12:35:19;38.50;35.00
20526;DHT22;10421;49.142;9.232;2023-07-09T12:37:47;38.40;35.10
20526;DHT22;10421;49.142;9.232;2023-07-09T12:40:21;38.30;34.00
20526;DHT22;10421;49.142;9.232;2023-07-09T12:42:48;38.30;34.20
20526;DHT22;10421;49.142;9.232;2023-07-09T12:45:17;38.20;33.60
20526;DHT22;10421;49.142;9.232;2023-07-09T12:47:45;38.10;33.90
20526;DHT22;10421;49.142;9.232;2023-07-09T12:50:28;38.10;34.10
20526;DHT22;10421;49.142;9.232;2023-07-09T12:52:59;38.00;33.60
20526;DHT22;10421;49.142;9.232;2023-07-09T12:55:28;38.00;34.20
20526;DHT22;10421;49.142;9.232;2023-07-09T12:57:59;38.10;34.10
20526;DHT22;10421;49.142;9.232;2023-07-09T13:00:30;38.30;34.30
20526;DHT22;10421;49.142;9.232;2023-07-09T13:02:58;38.50;33.70
20526;DHT22;10421;49.142;9.232;2023-07-09T13:05:26;38.70;33.80
20526;DHT22;10421;49.142;9.232;2023-07-09T13:07:58;38.90;33.20
20526;DHT22;10421;49.142;9.232;2023-07-09T13:10:28;39.00;32.90
20526;DHT22;10421;49.142;9.232;2023-07-09T13:12:57;39.10;33.20
20526;DHT22;10421;49.142;9.232;2023-07-09T13:15:28;39.30;33.10
20526;DHT22;10421;49.142;9.232;2023-07-09T13:18:00;39.50;32.60
20526;DHT22;10421;49.142;9.232;2023-07-09T13:20:27;39.60;32.50
20526;DHT22;10421;49.142;9.232;2023-07-09T13:22:54;39.40;32.50
20526;DHT22;10421;49.142;9.232;2023-07-09T13:25:21;39.50;32.80
20526;DHT22;10421;49.142;9.232;2023-07-09T13:27:49;39.50;32.40
20526;DHT22;10421;49.142;9.232;2023-07-09T13:30:16;39.60;32.40
20526;DHT22;10421;49.142;9.232;2023-07-09T13:32:44;39.80;32.40
20526;DHT22;10421;49.142;9.232;2023-07-09T13:35:15;39.80;31.80
20526;DHT22;10421;49.142;9.232;2023-07-09T13:37:43;39.80;31.10
20526;DHT22;10421;49.142;9.232;2023-07-09T13:40:12;39.80;31.00
20526;DHT22;10421;49.142;9.232;2023-07-09T13:42:40;39.60;30.20
20526;DHT22;10421;49.142;9.232;2023-07-09T13:45:18;39.60;29.40
20526;DHT22;10421;49.142;9.232;2023-07-09T13:47:45;39.50;29.10
20526;DHT22;10421;49.142;9.232;2023-07-09T13:50:14;39.50;30.00
20526;DHT22;10421;49.142;9.232;2023-07-09T13:52:42;39.60;30.00
20526;DHT22;10421;49.142;9.232;2023-07-09T13:55:16;39.50;30.00
20526;DHT22;10421;49.142;9.232;2023-07-09T13:57:43;39.40;29.70
20526;DHT22;10421;49.142;9.232;2023-07-09T14:00:11;39.20;29.40
20526;DHT22;10421;49.142;9.232;2023-07-09T14:02:40;39.20;29.00
20526;DHT22;10421;49.142;9.232;2023-07-09T14:05:09;39.20;28.90
20526;DHT22;10421;49.142;9.232;2023-07-09T14:07:38;39.00;29.90
20526;DHT22;10421;49.142;9.232;2023-07-09T14:10:07;39.00;30.70
20526;DHT22;10421;49.142;9.232;2023-07-09T14:12:39;39.10;30.70
20526;DHT22;10421;49.142;9.232;2023-07-09T14:15:12;39.30;31.00
20526;DHT22;10421;49.142;9.232;2023-07-09T14:17:41;39.40;31.10
20526;DHT22;10421;49.142;9.232;2023-07-09T14:20:11;39.30;29.80
20526;DHT22;10421;49.142;9.232;2023-07-09T14:22:38;39.20;29.50
20526;DHT22;10421;49.142;9.232;2023-07-09T14:25:06;39.10;30.00
20526;DHT22;10421;49.142;9.232;2023-07-09T14:27:33;38.90;29.70
20526;DHT22;10421;49.142;9.232;2023-07-09T14:30:00;38.90;29.90
20526;DHT22;10421;49.142;9.232;2023-07-09T14:32:34;38.70;29.90
20526;DHT22;10421;49.142;9.232;2023-07-09T14:35:09;38.70;30.00
20526;DHT22;10421;49.142;9.232;2023-07-09T14:37:36;38.50;29.60
20526;DHT22;10421;49.142;9.232;2023-07-09T14:40:04;38.50;29.80
20526;DHT22;10421;49.142;9.232;2023-07-09T14:42:31;38.40;29.50
20526;DHT22;10421;49.142;9.232;2023-07-09T14:44:58;38.50;29.70
20526;DHT22;10421;49.142;9.232;2023-07-09T14:47:25;38.70;29.80
20526;DHT22;10421;49.142;9.232;2023-07-09T14:49:53;38.60;29.50
20526;DHT22;10421;49.142;9.232;2023-07-09T14:52:22;38.60;29.70
20526;DHT22;10421;49.142;9.232;2023-07-09T14:54:51;38.60;29.70
20526;DHT22;10421;49.142;9.232;2023-07-09T14:57:20;38.50;29.40
20526;DHT22;10421;49.142;9.232;2023-07-09T14:59:49;38.40;29.00
20526;DHT22;10421;49.142;9.232;2023-07-09T15:02:29;38.30;29.60
20526;DHT22;10421;49.142;9.232;2023-07-09T15:04:57;38.30;29.50
20526;DHT22;10421;49.142;9.232;2023-07-09T15:07:25;38.20;29.60
20526;DHT22;10421;49.142;9.232;2023-07-09T15:09:55;38.20;30.10
20526;DHT22;10421;49.142;9.232;2023-07-09T15:12:26;38.20;29.90
20526;DHT22;10421;49.142;9.232;2023-07-09T15:14:58;38.10;29.80
20526;DHT22;10421;49.142;9.232;2023-07-09T15:17:27;38.10;29.80
20526;DHT22;10421;49.142;9.232;2023-07-09T15:19:53;38.10;30.00
20526;DHT22;10421;49.142;9.232;2023-07-09T15:22:27;38.10;30.20
20526;DHT22;10421;49.142;9.232;2023-07-09T15:24:55;38.10;30.20
20526;DHT22;10421;49.142;9.232;2023-07-09T15:27:21;38.00;30.10
20526;DHT22;10421;49.142;9.232;2023-07-09T15:29:49;38.00;30.40
20526;DHT22;10421;49.142;9.232;2023-07-09T15:32:16;38.00;30.50
20526;DHT22;10421;49.142;9.232;2023-07-09T15:34:43;38.10;30.00
20526;DHT22;10421;49.142;9.232;2023-07-09T15:37:12;38.20;30.00
20526;DHT22;10421;49.142;9.232;2023-07-09T15:39:41;38.20;30.00
20526;DHT22;10421;49.142;9.232;2023-07-09T15:42:11;38.30;30.00
20526;DHT22;10421;49.142;9.232;2023-07-09T15:44:38;38.30;30.20
20526;DHT22;10421;49.142;9.232;2023-07-09T15:47:08;38.40;30.40